createdAt,value
2023-06-30T00:04:53.035Z,74.86
2023-06-30T00:15:17.190Z,75.49
2023-06-30T00:25:41.286Z,75.91
2023-06-30T00:36:05.902Z,76.45
2023-06-30T00:46:30.162Z,76.67
2023-06-30T00:56:54.227Z,77.31
2023-06-30T01:07:23.960Z,77.61
2023-06-30T01:17:52.649Z,78.12
2023-06-30T01:28:19.042Z,78.55
2023-06-30T01:38:44.225Z,78.94
2023-06-30T01:49:11.494Z,79.22
2023-06-30T01:59:35.692Z,79.49
2023-06-30T02:09:59.863Z,79.86
2023-06-30T02:20:25.250Z,80.00
2023-06-30T02:30:49.301Z,80.82
2023-06-30T02:41:13.373Z,81.60
2023-06-30T02:51:37.638Z,81.26
2023-06-30T03:02:03.024Z,81.45
2023-06-30T03:12:27.781Z,80.27
2023-06-30T03:22:54.003Z,75.27
2023-06-30T03:33:18.178Z,71.72
2023-06-30T03:43:42.178Z,67.67
2023-06-30T03:54:07.564Z,67.21
2023-06-30T04:04:33.197Z,67.45
2023-06-30T04:14:58.194Z,59.28
2023-06-30T04:25:22.403Z,51.63
2023-06-30T04:35:46.976Z,45.68
2023-06-30T04:46:11.430Z,40.29
2023-06-30T04:56:35.695Z,36.13
2023-06-30T05:06:59.813Z,32.65
2023-06-30T05:17:24.057Z,29.01
2023-06-30T05:27:48.281Z,25.99
2023-06-30T05:38:12.357Z,23.78
2023-06-30T05:48:36.384Z,22.59
2023-06-30T05:59:00.403Z,21.82
2023-06-30T06:09:24.445Z,21.78
2023-06-30T06:19:48.597Z,21.83
2023-06-30T06:30:14.303Z,23.55
2023-06-30T06:40:37.823Z,25.69
2023-06-30T06:51:03.906Z,27.12
2023-06-30T07:01:28.034Z,29.08
2023-06-30T07:11:52.281Z,31.25
2023-06-30T07:22:16.388Z,32.90
2023-06-30T07:32:40.484Z,33.85
2023-06-30T07:43:04.668Z,33.66
2023-06-30T07:53:28.824Z,32.85
2023-06-30T08:03:53.302Z,33.19
2023-06-30T08:14:16.993Z,33.47
2023-06-30T08:24:42.227Z,32.41
2023-06-30T08:35:07.110Z,31.96
2023-06-30T08:45:31.007Z,30.69
2023-06-30T08:55:55.472Z,29.05
2023-06-30T09:06:20.225Z,28.60
2023-06-30T09:16:44.264Z,28.81
2023-06-30T09:27:08.736Z,29.92
2023-06-30T09:37:41.142Z,29.86
2023-06-30T09:48:10.944Z,29.61
2023-06-30T09:58:36.517Z,29.51
2023-06-30T10:09:02.543Z,29.79
2023-06-30T10:19:28.320Z,30.57
2023-06-30T10:29:53.489Z,30.86
2023-06-30T10:40:28.223Z,30.55
2023-06-30T10:50:54.823Z,31.28
2023-06-30T11:01:19.078Z,31.54
2023-06-30T11:11:50.264Z,31.67
2023-06-30T11:22:24.333Z,31.40
2023-06-30T11:32:48.990Z,31.71
2023-06-30T11:43:12.647Z,31.35
2023-06-30T11:53:37.037Z,31.64
2023-06-30T12:04:34.843Z,31.86
2023-06-30T12:14:58.363Z,31.88
2023-06-30T12:25:27.431Z,31.84
2023-06-30T12:35:51.737Z,31.38
2023-06-30T12:46:15.298Z,31.48
2023-06-30T12:56:39.343Z,31.68
2023-06-30T13:07:03.473Z,32.13
2023-06-30T13:17:27.686Z,32.41
2023-06-30T13:27:52.015Z,32.36
2023-06-30T13:38:16.173Z,32.45
2023-06-30T13:48:40.942Z,33.28
2023-06-30T13:59:05.009Z,34.29
2023-06-30T14:09:29.353Z,35.21
2023-06-30T14:19:53.429Z,36.21
2023-06-30T14:30:17.874Z,37.13
2023-06-30T14:40:42.024Z,38.07
2023-06-30T14:51:06.129Z,39.05
2023-06-30T15:01:30.915Z,39.84
2023-06-30T15:11:54.632Z,40.70
2023-06-30T15:22:19.764Z,41.37
2023-06-30T15:32:43.425Z,41.77
2023-06-30T15:43:08.595Z,41.59
2023-06-30T15:53:32.759Z,41.56
2023-06-30T16:03:57.526Z,41.90
2023-06-30T16:14:21.754Z,42.69
2023-06-30T16:24:46.182Z,43.65
2023-06-30T16:35:10.681Z,44.78
2023-06-30T16:45:35.109Z,45.91
2023-06-30T16:56:01.137Z,46.30
2023-06-30T17:06:26.294Z,46.96
2023-06-30T17:16:50.590Z,48.00
2023-06-30T17:27:14.803Z,48.71
2023-06-30T17:37:40.054Z,50.10
2023-06-30T17:48:04.281Z,51.89
2023-06-30T17:58:28.492Z,54.90
2023-06-30T18:08:52.620Z,57.55
2023-06-30T18:19:19.137Z,59.65
2023-06-30T18:29:42.468Z,61.31
2023-06-30T18:40:19.772Z,62.88
2023-06-30T18:50:44.068Z,63.52
2023-06-30T19:01:11.082Z,64.63
2023-06-30T19:11:34.949Z,65.35
2023-06-30T19:21:59.397Z,66.27
2023-06-30T19:32:23.586Z,66.69
2023-06-30T19:42:47.914Z,67.61
2023-06-30T19:53:13.022Z,67.97
2023-06-30T20:03:37.552Z,67.76
2023-06-30T20:14:01.784Z,67.87
2023-06-30T20:24:30.014Z,68.74
2023-06-30T20:34:54.273Z,69.78
2023-06-30T20:45:18.639Z,70.82
2023-06-30T20:55:43.006Z,71.83
2023-06-30T21:06:07.458Z,72.74
2023-06-30T21:16:31.910Z,73.70
2023-06-30T21:26:55.930Z,75.00
2023-06-30T21:37:19.974Z,75.89
2023-06-30T21:47:44.032Z,76.92
2023-06-30T21:58:22.717Z,77.70
2023-06-30T22:08:53.412Z,78.29
2023-06-30T22:19:19.078Z,79.39
2023-06-30T22:29:43.310Z,80.10
2023-06-30T22:40:09.792Z,80.51
2023-06-30T22:50:33.319Z,81.10
2023-06-30T23:00:57.343Z,81.25
2023-06-30T23:11:21.499Z,81.57
2023-06-30T23:21:45.803Z,81.56
2023-06-30T23:32:10.345Z,81.81
2023-06-30T23:42:33.888Z,81.81
2023-06-30T23:52:57.873Z,81.90
